Time;durP1;ratioP1;P1;durP2;ratioP2;P2;SDS_P1;SDS_P2;PMS_P1;PMS_P2;Temp;Humidity;BMP_temperature;BMP_pressure;BME280_temperature;BME280_humidity;BME280_pressure;Samples;Min_cycle;Max_cycle;Signal;HPM_P1;HPM_P2
2022/12/10 00:01:47;;;;;;;39.15;25.48;;;;;;;;;;4961705;28;20055;-80
2022/12/10 00:04:14;;;;;;;40.05;25.85;;;;;;;;;;4952109;28;20055;-80
2022/12/10 00:06:41;;;;;;;39.65;26.02;;;;;;;;;;4969594;28;20239;-80
2022/12/10 00:09:11;;;;;;;42.83;25.45;;;;;;;;;;4984331;28;20069;-80
2022/12/10 00:11:39;;;;;;;36.63;23.92;;;;;;;;;;4988521;28;20043;-81
2022/12/10 00:14:06;;;;;;;42.72;25.35;;;;;;;;;;4991673;28;20039;-82
2022/12/10 00:16:33;;;;;;;39.10;25.52;;;;;;;;;;4957759;28;20046;-81
2022/12/10 00:19:00;;;;;;;36.80;24.10;;;;;;;;;;4944153;28;20050;-80
2022/12/10 00:21:30;;;;;;;37.10;25.17;;;;;;;;;;4942662;28;20058;-80
2022/12/10 00:23:57;;;;;;;36.22;25.23;;;;;;;;;;4960583;28;20078;-80
2022/12/10 00:26:29;;;;;;;37.97;24.25;;;;;;;;;;4975086;28;20062;-81
2022/12/10 00:28:56;;;;;;;37.15;25.15;;;;;;;;;;4959662;28;20427;-80
2022/12/10 00:31:26;;;;;;;36.08;24.08;;;;;;;;;;4974362;28;20066;-81
2022/12/10 00:33:54;;;;;;;39.25;23.85;;;;;;;;;;4958041;28;20063;-81
2022/12/10 00:36:26;;;;;;;37.75;23.27;;;;;;;;;;4942629;28;20061;-80
2022/12/10 00:38:53;;;;;;;34.33;22.88;;;;;;;;;;4958082;28;20066;-81
2022/12/10 00:41:21;;;;;;;33.00;22.00;;;;;;;;;;4974986;28;20050;-81
2022/12/10 00:43:48;;;;;;;34.85;22.70;;;;;;;;;;4956112;28;20657;-80
2022/12/10 00:46:15;;;;;;;37.75;23.40;;;;;;;;;;4964430;28;20047;-80
2022/12/10 00:48:42;;;;;;;37.45;23.80;;;;;;;;;;4938834;28;20098;-80
2022/12/10 00:51:15;;;;;;;34.30;23.30;;;;;;;;;;4969978;28;20058;-79
2022/12/10 00:53:43;;;;;;;36.17;23.38;;;;;;;;;;4953585;28;20054;-79
2022/12/10 00:56:11;;;;;;;30.67;21.63;;;;;;;;;;4938487;28;20050;-79
2022/12/10 00:58:38;;;;;;;44.58;31.33;;;;;;;;;;4939546;28;20050;-80
2022/12/10 01:01:08;;;;;;;37.40;24.13;;;;;;;;;;4957206;28;20427;-80
2022/12/10 01:03:35;;;;;;;36.65;22.67;;;;;;;;;;4975232;28;20078;-79
2022/12/10 01:06:32;;;;;;;33.88;22.20;;;;;;;;;;4944018;28;20496;-79
2022/12/10 01:09:03;;;;;;;33.83;21.35;;;;;;;;;;4958830;28;20114;-80
2022/12/10 01:11:32;;;;;;;33.63;21.65;;;;;;;;;;4944151;28;20495;-79
2022/12/10 01:13:59;;;;;;;36.03;23.23;;;;;;;;;;4959732;28;20050;-79
2022/12/10 01:16:26;;;;;;;31.02;21.38;;;;;;;;;;4959116;28;20057;-79
2022/12/10 01:18:54;;;;;;;33.55;21.30;;;;;;;;;;4943532;28;20057;-79
2022/12/10 01:21:21;;;;;;;32.35;21.75;;;;;;;;;;4975430;28;20471;-79
2022/12/10 01:23:49;;;;;;;31.52;21.48;;;;;;;;;;4943430;28;20054;-79
2022/12/10 01:26:20;;;;;;;34.40;21.83;;;;;;;;;;4959603;28;20047;-79
2022/12/10 01:28:48;;;;;;;32.90;21.63;;;;;;;;;;4975475;28;20487;-79
2022/12/10 01:31:17;;;;;;;32.80;21.95;;;;;;;;;;4943374;28;20059;-79
2022/12/10 01:33:44;;;;;;;32.83;22.25;;;;;;;;;;4975265;28;20515;-79
2022/12/10 01:36:14;;;;;;;33.50;22.92;;;;;;;;;;4959660;28;20051;-80
2022/12/10 01:38:41;;;;;;;38.88;22.58;;;;;;;;;;4944152;28;20159;-81
2022/12/10 01:41:15;;;;;;;35.63;22.70;;;;;;;;;;4959450;28;20055;-80
2022/12/10 01:43:54;;;;;;;32.13;21.80;;;;;;;;;;4943642;28;20054;-79
2022/12/10 01:46:21;;;;;;;31.15;21.85;;;;;;;;;;4959884;28;20061;-80
2022/12/10 01:48:48;;;;;;;34.15;22.58;;;;;;;;;;4943528;28;20051;-79
2022/12/10 01:51:14;;;;;;;31.92;22.38;;;;;;;;;;4958923;28;20058;-80
2022/12/10 01:53:42;;;;;;;34.30;23.27;;;;;;;;;;4974604;28;20055;-79
2022/12/10 01:56:10;;;;;;;32.58;21.77;;;;;;;;;;4943944;28;20047;-80
2022/12/10 01:58:37;;;;;;;34.65;23.02;;;;;;;;;;4943500;28;20086;-80
2022/12/10 02:01:13;;;;;;;34.53;22.00;;;;;;;;;;4943746;28;20058;-80
2022/12/10 02:03:57;;;;;;;32.80;22.25;;;;;;;;;;4944386;28;20055;-82
2022/12/10 02:06:42;;;;;;;32.28;21.73;;;;;;;;;;4960032;28;20412;-80
2022/12/10 02:09:14;;;;;;;32.63;21.33;;;;;;;;;;4975585;28;20065;-80
2022/12/10 02:11:55;;;;;;;35.78;22.50;;;;;;;;;;4959950;28;20050;-79
2022/12/10 02:14:54;;;;;;;35.67;21.17;;;;;;;;;;4960581;28;20059;-79
2022/12/10 02:17:27;;;;;;;29.90;21.02;;;;;;;;;;4967254;28;20050;-79
2022/12/10 02:20:28;;;;;;;34.20;21.67;;;;;;;;;;4942436;28;20058;-79
2022/12/10 02:22:59;;;;;;;31.67;21.65;;;;;;;;;;4946832;28;20053;-79
2022/12/10 02:25:37;;;;;;;32.22;20.88;;;;;;;;;;4942226;28;20054;-79
2022/12/10 02:28:22;;;;;;;32.17;22.40;;;;;;;;;;4957612;28;20113;-79
2022/12/10 02:30:49;;;;;;;34.33;21.33;;;;;;;;;;4943448;28;20149;-80
2022/12/10 02:33:17;;;;;;;36.03;21.40;;;;;;;;;;4936982;29;20047;-78
2022/12/10 02:35:43;;;;;;;32.17;21.25;;;;;;;;;;4937193;29;20058;-78
2022/12/10 02:38:29;;;;;;;35.47;21.75;;;;;;;;;;4922785;29;20055;-79
2022/12/10 02:41:02;;;;;;;31.13;21.92;;;;;;;;;;4924825;29;20059;-79
2022/12/10 02:43:28;;;;;;;;;;;;;;;;;;4950885;28;20123;-79
2022/12/10 02:45:56;;;;;;;32.40;20.92;;;;;;;;;;4957304;28;19922;-79
2022/12/10 02:48:23;;;;;;;32.45;21.45;;;;;;;;;;4941576;28;20089;-79
2022/12/10 02:50:50;;;;;;;35.30;22.30;;;;;;;;;;4941100;28;20431;-79
2022/12/10 02:53:16;;;;;;;34.65;22.42;;;;;;;;;;4973004;28;20050;-79
2022/12/10 02:56:08;;;;;;;34.33;21.52;;;;;;;;;;4958734;28;20062;-80
2022/12/10 02:59:16;;;;;;;34.17;21.20;;;;;;;;;;4965278;28;20113;-80
2022/12/10 03:02:07;;;;;;;31.05;21.80;;;;;;;;;;4956942;28;20054;-80
2022/12/10 03:04:56;;;;;;;33.90;20.95;;;;;;;;;;4975062;28;20568;-80
2022/12/10 03:07:33;;;;;;;33.05;22.67;;;;;;;;;;4973713;28;20054;-80
2022/12/10 03:10:14;;;;;;;32.88;22.10;;;;;;;;;;4940998;28;20063;-79
2022/12/10 03:12:47;;;;;;;31.98;21.95;;;;;;;;;;4941250;28;20054;-79
2022/12/10 03:15:14;;;;;;;35.00;21.45;;;;;;;;;;4956505;28;20063;-79
2022/12/10 03:17:41;;;;;;;34.03;22.38;;;;;;;;;;4973012;28;20568;-79
2022/12/10 03:20:10;;;;;;;31.30;20.75;;;;;;;;;;4957109;28;20058;-79
2022/12/10 03:22:38;;;;;;;35.70;22.45;;;;;;;;;;4941058;28;20105;-79
2022/12/10 03:25:06;;;;;;;32.45;21.95;;;;;;;;;;4957981;28;20081;-79
2022/12/10 03:27:33;;;;;;;33.50;20.98;;;;;;;;;;4958032;28;20059;-80
2022/12/10 03:29:59;;;;;;;33.47;21.90;;;;;;;;;;4957944;28;20054;-80
2022/12/10 03:32:27;;;;;;;34.63;22.48;;;;;;;;;;4941421;28;20113;-79
2022/12/10 03:34:55;;;;;;;34.00;22.88;;;;;;;;;;4956882;28;20061;-79
2022/12/10 03:37:22;;;;;;;33.40;21.05;;;;;;;;;;4941030;28;20659;-79
2022/12/10 03:39:49;;;;;;;34.83;23.20;;;;;;;;;;4973075;28;20054;-79
2022/12/10 03:42:15;;;;;;;32.65;21.08;;;;;;;;;;4956577;28;20414;-79
2022/12/10 03:44:42;;;;;;;31.52;21.58;;;;;;;;;;4957943;28;20065;-81
2022/12/10 03:47:11;;;;;;;30.80;20.38;;;;;;;;;;4959247;28;20166;-80
2022/12/10 03:49:38;;;;;;;33.22;21.83;;;;;;;;;;4942535;28;20061;-81
2022/12/10 03:52:05;;;;;;;34.40;22.45;;;;;;;;;;4974590;28;20062;-80
2022/12/10 03:54:32;;;;;;;34.83;22.55;;;;;;;;;;4974376;28;20051;-79
2022/12/10 03:56:58;;;;;;;33.17;22.58;;;;;;;;;;4957309;28;20503;-79
2022/12/10 03:59:25;;;;;;;32.83;22.70;;;;;;;;;;4956063;28;20062;-79
2022/12/10 04:01:52;;;;;;;36.35;22.20;;;;;;;;;;4938757;28;20050;-79
2022/12/10 04:04:19;;;;;;;33.83;23.33;;;;;;;;;;4971097;28;20479;-79
2022/12/10 04:06:45;;;;;;;32.00;21.58;;;;;;;;;;4971454;28;20121;-79
2022/12/10 04:09:13;;;;;;;35.03;21.60;;;;;;;;;;4973341;28;20096;-79
2022/12/10 04:11:40;;;;;;;36.92;23.20;;;;;;;;;;4974014;28;20062;-78
2022/12/10 04:16:53;;;;;;;34.60;21.67;;;;;;;;;;4951897;29;20062;-79
2022/12/10 04:19:20;;;;;;;32.97;22.02;;;;;;;;;;4952670;29;20057;-79
2022/12/10 04:27:27;;;;;;;33.67;22.58;;;;;;;;;;4970454;28;20054;-79
2022/12/10 04:29:55;;;;;;;37.53;23.38;;;;;;;;;;4955177;28;20147;-79
2022/12/10 04:32:22;;;;;;;34.45;21.83;;;;;;;;;;4971441;28;20098;-79
2022/12/10 04:34:49;;;;;;;34.72;21.83;;;;;;;;;;4955566;28;20070;-79
2022/12/10 04:37:16;;;;;;;31.90;20.83;;;;;;;;;;4958704;28;20043;-79
2022/12/10 04:39:44;;;;;;;32.72;22.85;;;;;;;;;;4958751;28;20063;-80
2022/12/10 04:42:10;;;;;;;32.40;20.70;;;;;;;;;;4958869;28;20101;-79
2022/12/10 04:44:37;;;;;;;31.63;20.60;;;;;;;;;;4976540;28;20151;-78
2022/12/10 04:47:05;;;;;;;33.90;22.27;;;;;;;;;;4976147;28;20065;-79
2022/12/10 04:49:32;;;;;;;34.00;21.58;;;;;;;;;;4943859;28;20050;-78
2022/12/10 04:51:59;;;;;;;28.25;19.58;;;;;;;;;;4959348;28;20085;-78
2022/12/10 04:54:26;;;;;;;33.53;22.85;;;;;;;;;;4959462;28;20059;-80
2022/12/10 04:56:53;;;;;;;33.00;22.23;;;;;;;;;;4977039;28;20042;-80
2022/12/10 04:59:19;;;;;;;34.63;22.95;;;;;;;;;;4983177;28;20082;-79
2022/12/10 05:01:46;;;;;;;30.63;22.27;;;;;;;;;;4999257;28;20039;-79
2022/12/10 05:04:15;;;;;;;36.50;22.50;;;;;;;;;;4999880;28;20073;-80
2022/12/10 05:06:43;;;;;;;34.67;22.58;;;;;;;;;;5000019;28;20045;-79
2022/12/10 05:09:11;;;;;;;32.92;21.70;;;;;;;;;;4995105;28;20491;-79
2022/12/10 05:11:37;;;;;;;34.85;22.33;;;;;;;;;;4983949;28;20049;-79
2022/12/10 05:14:04;;;;;;;34.10;21.70;;;;;;;;;;4968041;28;20065;-79
2022/12/10 05:16:33;;;;;;;35.97;21.95;;;;;;;;;;4999902;28;20063;-79
2022/12/10 05:19:00;;;;;;;32.85;22.42;;;;;;;;;;5000646;28;20039;-81
2022/12/10 05:23:27;;;;;;;33.03;21.83;;;;;;;;;;5000282;28;20043;-79
2022/12/10 05:24:15;;;;;;;34.08;21.52;;;;;;;;;;5000832;28;20102;-78
2022/12/10 05:26:42;;;;;;;34.45;22.55;;;;;;;;;;4968379;28;20030;-78
2022/12/10 05:29:09;;;;;;;34.63;23.05;;;;;;;;;;5000356;28;20035;-79
2022/12/10 05:31:35;;;;;;;31.73;21.50;;;;;;;;;;4984021;28;20074;-79
2022/12/10 05:34:02;;;;;;;32.63;21.60;;;;;;;;;;4984110;28;20045;-79
2022/12/10 05:36:30;;;;;;;36.85;22.77;;;;;;;;;;4984088;28;20045;-79
2022/12/10 05:38:57;;;;;;;37.45;24.20;;;;;;;;;;4968578;28;20058;-79
2022/12/10 05:41:26;;;;;;;34.38;23.27;;;;;;;;;;4968513;28;20039;-79
2022/12/10 05:43:54;;;;;;;32.55;22.95;;;;;;;;;;4984220;28;20027;-79
2022/12/10 05:46:23;;;;;;;36.95;23.02;;;;;;;;;;4968761;28;20159;-80
2022/12/10 05:48:50;;;;;;;33.40;23.02;;;;;;;;;;5001119;28;20099;-79
2022/12/10 05:51:20;;;;;;;34.30;22.83;;;;;;;;;;5000398;28;20037;-79
2022/12/10 05:53:47;;;;;;;36.45;23.08;;;;;;;;;;5000284;28;20055;-78
2022/12/10 05:56:18;;;;;;;36.20;23.00;;;;;;;;;;4984795;28;20027;-82
2022/12/10 05:58:45;;;;;;;35.13;23.90;;;;;;;;;;4960031;28;20435;-79
2022/12/10 06:01:17;;;;;;;35.88;23.67;;;;;;;;;;4948864;28;20065;-80
2022/12/10 06:03:44;;;;;;;32.13;22.52;;;;;;;;;;4963561;28;20059;-79
2022/12/10 06:06:12;;;;;;;34.20;23.98;;;;;;;;;;4966309;28;20084;-78
2022/12/10 06:08:39;;;;;;;34.30;23.77;;;;;;;;;;4958788;28;20049;-76
2022/12/10 06:11:07;;;;;;;38.67;23.05;;;;;;;;;;4973946;28;20411;-76
2022/12/10 06:13:34;;;;;;;31.55;22.40;;;;;;;;;;4958183;28;20050;-80
2022/12/10 06:16:06;;;;;;;38.13;23.77;;;;;;;;;;4943154;28;20051;-80
2022/12/10 06:18:33;;;;;;;35.30;23.63;;;;;;;;;;4940200;29;20461;-79
2022/12/10 06:21:03;;;;;;;39.92;24.60;;;;;;;;;;4939024;29;20122;-80
2022/12/10 06:23:30;;;;;;;33.08;23.83;;;;;;;;;;4941610;28;20427;-81
2022/12/10 06:25:57;;;;;;;34.67;24.55;;;;;;;;;;4974136;28;20061;-81
2022/12/10 06:28:23;;;;;;;35.10;22.45;;;;;;;;;;4973375;28;20048;-82
2022/12/10 06:30:50;;;;;;;36.67;23.33;;;;;;;;;;4943290;28;20051;-82
2022/12/10 06:33:17;;;;;;;36.63;23.65;;;;;;;;;;4960206;28;20047;-80
2022/12/10 06:35:44;;;;;;;35.97;24.48;;;;;;;;;;4978632;28;20235;-81
2022/12/10 06:38:11;;;;;;;35.60;23.52;;;;;;;;;;4962370;28;20106;-81
2022/12/10 06:40:40;;;;;;;36.78;23.38;;;;;;;;;;4983798;28;20054;-80
2022/12/10 06:43:07;;;;;;;33.88;22.73;;;;;;;;;;4961486;28;20051;-81
2022/12/10 06:45:33;;;;;;;36.33;23.33;;;;;;;;;;4958647;28;20058;-80
2022/12/10 06:48:00;;;;;;;36.45;23.50;;;;;;;;;;4958524;28;20050;-80
2022/12/10 06:50:27;;;;;;;36.42;24.00;;;;;;;;;;4977098;28;20051;-80
2022/12/10 06:52:54;;;;;;;39.53;24.73;;;;;;;;;;4975716;28;20050;-80
2022/12/10 06:55:21;;;;;;;32.33;22.45;;;;;;;;;;4977697;28;20079;-79
2022/12/10 06:57:51;;;;;;;35.42;23.38;;;;;;;;;;4974032;28;20488;-81
2022/12/10 07:00:18;;;;;;;35.03;22.10;;;;;;;;;;4973447;28;20074;-79
2022/12/10 07:02:47;;;;;;;32.70;21.92;;;;;;;;;;4942295;28;20137;-79
2022/12/10 07:05:14;;;;;;;34.10;21.98;;;;;;;;;;4973206;28;20090;-79
2022/12/10 07:07:42;;;;;;;34.92;23.92;;;;;;;;;;4942934;28;20062;-80
2022/12/10 07:10:10;;;;;;;36.40;23.63;;;;;;;;;;4942189;28;20058;-79
2022/12/10 07:12:37;;;;;;;35.58;24.75;;;;;;;;;;4956946;28;20055;-80
2022/12/10 07:15:04;;;;;;;47.95;30.95;;;;;;;;;;4973467;28;20109;-80
2022/12/10 07:17:31;;;;;;;40.65;26.77;;;;;;;;;;5021376;23;20118;-77
2022/12/10 07:19:57;;;;;;;46.22;27.13;;;;;;;;;;4951594;29;20110;-76
2022/12/10 07:22:24;;;;;;;41.60;27.05;;;;;;;;;;4952266;29;20054;-77
2022/12/10 07:24:51;;;;;;;36.03;24.35;;;;;;;;;;4952942;29;20468;-75
2022/12/10 07:27:18;;;;;;;37.20;25.52;;;;;;;;;;4951717;29;20285;-76
2022/12/10 07:29:45;;;;;;;42.47;28.00;;;;;;;;;;4950954;29;20063;-76
2022/12/10 07:32:12;;;;;;;43.55;28.38;;;;;;;;;;4951944;29;20059;-82
2022/12/10 07:34:38;;;;;;;38.03;26.30;;;;;;;;;;4919600;29;20047;-76
2022/12/10 07:37:05;;;;;;;39.78;25.48;;;;;;;;;;4951133;29;20055;-75
2022/12/10 07:39:32;;;;;;;40.42;25.83;;;;;;;;;;4935585;29;20050;-75
2022/12/10 07:41:59;;;;;;;32.47;23.20;;;;;;;;;;4936234;29;20520;-74
2022/12/10 07:44:26;;;;;;;33.58;22.60;;;;;;;;;;4954485;28;20418;-77
2022/12/10 07:46:54;;;;;;;34.08;23.60;;;;;;;;;;4935837;29;20073;-77
2022/12/10 07:49:20;;;;;;;35.63;23.33;;;;;;;;;;4920400;29;20059;-77
2022/12/10 07:51:49;;;;;;;36.67;24.35;;;;;;;;;;4935653;29;20051;-76
2022/12/10 07:54:16;;;;;;;37.13;24.40;;;;;;;;;;4952895;28;20059;-77
2022/12/10 07:56:43;;;;;;;38.30;24.92;;;;;;;;;;4935933;29;20420;-74
2022/12/10 07:59:10;;;;;;;37.50;23.77;;;;;;;;;;4951443;29;20063;-76
2022/12/10 08:01:37;;;;;;;35.60;24.02;;;;;;;;;;4950977;28;20080;-76
2022/12/10 08:04:03;;;;;;;35.63;23.20;;;;;;;;;;4951794;29;20055;-77
2022/12/10 08:06:30;;;;;;;34.95;22.70;;;;;;;;;;4953431;28;20055;-79
2022/12/10 08:08:58;;;;;;;37.58;23.80;;;;;;;;;;4936541;29;20059;-77
2022/12/10 08:11:26;;;;;;;36.80;23.98;;;;;;;;;;4923628;29;20069;-76
2022/12/10 08:13:53;;;;;;;33.67;23.17;;;;;;;;;;4939906;29;20138;-77
2022/12/10 08:16:25;;;;;;;33.72;23.67;;;;;;;;;;4924754;29;20062;-77
2022/12/10 08:18:53;;;;;;;39.83;25.33;;;;;;;;;;4924492;29;20110;-77
2022/12/10 08:21:22;;;;;;;35.88;22.25;;;;;;;;;;4923953;29;20062;-77
2022/12/10 08:23:49;;;;;;;36.67;24.10;;;;;;;;;;4955413;29;20051;-75
2022/12/10 08:26:21;;;;;;;34.83;22.98;;;;;;;;;;4955778;29;20467;-77
2022/12/10 08:28:49;;;;;;;33.08;23.20;;;;;;;;;;4939390;29;20472;-77
2022/12/10 08:31:17;;;;;;;36.47;23.75;;;;;;;;;;4954599;28;20050;-76
2022/12/10 08:33:44;;;;;;;35.38;23.13;;;;;;;;;;4939517;29;20055;-77
2022/12/10 08:36:12;;;;;;;33.47;22.30;;;;;;;;;;4939280;29;20055;-78
2022/12/10 08:38:40;;;;;;;34.70;23.20;;;;;;;;;;4923882;29;20058;-78
2022/12/10 08:41:14;;;;;;;34.55;21.77;;;;;;;;;;4923930;29;20071;-77
2022/12/10 08:43:40;;;;;;;36.47;22.58;;;;;;;;;;4924357;29;20059;-75
2022/12/10 08:46:07;;;;;;;31.42;22.27;;;;;;;;;;4954922;29;20070;-74
2022/12/10 08:48:35;;;;;;;31.92;22.42;;;;;;;;;;4956290;28;20055;-73
2022/12/10 08:51:03;;;;;;;32.40;22.42;;;;;;;;;;4954550;28;20085;-74
2022/12/10 08:53:30;;;;;;;36.05;22.50;;;;;;;;;;4938460;29;20134;-74
2022/12/10 08:55:58;;;;;;;32.15;22.60;;;;;;;;;;4958669;29;20059;-76
2022/12/10 08:58:24;;;;;;;32.40;22.65;;;;;;;;;;4976643;29;20054;-74
2022/12/10 09:00:52;;;;;;;36.35;22.65;;;;;;;;;;4977844;28;20055;-76
2022/12/10 09:03:18;;;;;;;34.88;23.63;;;;;;;;;;4977809;29;20083;-78
2022/12/10 09:05:45;;;;;;;30.92;22.15;;;;;;;;;;4958253;29;20052;-76
2022/12/10 09:08:12;;;;;;;37.40;23.95;;;;;;;;;;4941658;29;20034;-78
2022/12/10 09:10:39;;;;;;;36.53;24.27;;;;;;;;;;4972893;28;20121;-78
2022/12/10 09:13:06;;;;;;;35.13;24.00;;;;;;;;;;4935965;29;20087;-78
2022/12/10 09:15:33;;;;;;;30.27;21.50;;;;;;;;;;4921815;29;20133;-77
2022/12/10 09:18:00;;;;;;;32.10;21.80;;;;;;;;;;4934906;29;20066;-77
2022/12/10 09:20:27;;;;;;;34.33;22.88;;;;;;;;;;4956539;28;20054;-78
2022/12/10 09:22:54;;;;;;;37.22;23.73;;;;;;;;;;4930040;29;20078;-77
2022/12/10 09:25:21;;;;;;;36.53;23.35;;;;;;;;;;4947120;29;20051;-78
2022/12/10 09:27:48;;;;;;;37.65;22.52;;;;;;;;;;4930817;29;20047;-78
2022/12/10 09:30:15;;;;;;;32.78;21.45;;;;;;;;;;4934238;29;20066;-78
2022/12/10 09:32:42;;;;;;;32.65;21.17;;;;;;;;;;4958961;28;20048;-78
2022/12/10 09:35:10;;;;;;;32.95;21.83;;;;;;;;;;4945952;29;20062;-77
2022/12/10 09:37:37;;;;;;;34.63;22.25;;;;;;;;;;4933518;29;20074;-78
2022/12/10 09:40:04;;;;;;;30.73;22.70;;;;;;;;;;4930175;29;20064;-78
2022/12/10 09:42:47;;;;;;;30.88;22.33;;;;;;;;;;4921967;29;20070;-78
2022/12/10 09:45:18;;;;;;;32.45;21.83;;;;;;;;;;4929309;29;20060;-78
2022/12/10 09:48:24;;;;;;;31.17;21.25;;;;;;;;;;4929542;29;20051;-78
2022/12/10 09:51:09;;;;;;;30.77;20.83;;;;;;;;;;4961535;28;20060;-78
2022/12/10 09:53:39;;;;;;;30.30;20.05;;;;;;;;;;4937549;29;20534;-79
2022/12/10 09:56:14;;;;;;;32.65;21.02;;;;;;;;;;4923224;29;20051;-78
2022/12/10 09:58:41;;;;;;;30.30;20.13;;;;;;;;;;4930855;29;20098;-79
2022/12/10 10:01:09;;;;;;;34.17;20.85;;;;;;;;;;4930337;29;20051;-79
2022/12/10 10:03:38;;;;;;;30.65;20.90;;;;;;;;;;4930304;29;20047;-79
2022/12/10 10:06:05;;;;;;;29.67;20.90;;;;;;;;;;4937457;29;20066;-79
2022/12/10 10:08:39;;;;;;;32.45;22.30;;;;;;;;;;4924187;29;20058;-79
2022/12/10 10:11:14;;;;;;;30.83;20.52;;;;;;;;;;4944659;29;20062;-79
2022/12/10 10:13:51;;;;;;;29.50;18.83;;;;;;;;;;4915229;29;20047;-77
2022/12/10 10:16:50;;;;;;;30.38;20.27;;;;;;;;;;4948072;29;20057;-78
2022/12/10 10:19:20;;;;;;;31.92;20.00;;;;;;;;;;4942007;29;20158;-77
2022/12/10 10:21:50;;;;;;;26.58;19.48;;;;;;;;;;4930026;29;20404;-77
2022/12/10 10:24:19;;;;;;;27.80;18.98;;;;;;;;;;4942314;29;20054;-77
2022/12/10 10:26:47;;;;;;;29.70;19.52;;;;;;;;;;4962725;28;20047;-77
2022/12/10 10:29:17;;;;;;;29.52;20.27;;;;;;;;;;4920035;29;20043;-77
2022/12/10 10:31:44;;;;;;;29.75;18.88;;;;;;;;;;4913251;29;20059;-77
2022/12/10 10:34:13;;;;;;;30.50;20.83;;;;;;;;;;4929736;29;20071;-77
2022/12/10 10:36:40;;;;;;;28.00;19.73;;;;;;;;;;4950608;29;20114;-77
2022/12/10 10:39:20;;;;;;;33.05;20.80;;;;;;;;;;4944930;29;20474;-78
2022/12/10 10:41:53;;;;;;;27.80;19.35;;;;;;;;;;4924556;29;20505;-77
2022/12/10 10:44:28;;;;;;;30.88;20.70;;;;;;;;;;4942518;28;20078;-77
2022/12/10 10:46:55;;;;;;;27.88;19.58;;;;;;;;;;4934812;29;20047;-77
2022/12/10 10:49:27;;;;;;;29.15;19.67;;;;;;;;;;4946011;29;20043;-78
2022/12/10 10:52:07;;;;;;;;;;;;;;;;;;4926218;29;20059;-78
2022/12/10 10:54:37;;;;;;;27.05;19.25;;;;;;;;;;4928819;29;19973;-78
2022/12/10 10:57:29;;;;;;;30.75;20.20;;;;;;;;;;4942559;29;20065;-78
2022/12/10 11:00:03;;;;;;;27.75;19.27;;;;;;;;;;4929952;29;20102;-79
2022/12/10 11:02:37;;;;;;;29.90;20.33;;;;;;;;;;4945025;28;20059;-78
2022/12/10 11:05:07;;;;;;;28.48;19.00;;;;;;;;;;4945411;29;20079;-78
2022/12/10 11:07:35;;;;;;;29.85;19.70;;;;;;;;;;4928353;29;20416;-79
2022/12/10 11:10:04;;;;;;;27.25;18.83;;;;;;;;;;4932588;29;20340;-77
2022/12/10 11:12:39;;;;;;;26.38;18.58;;;;;;;;;;4922967;28;20443;-77
2022/12/10 11:15:35;;;;;;;27.02;18.35;;;;;;;;;;4929581;29;20522;-78
2022/12/10 11:18:08;;;;;;;29.23;19.88;;;;;;;;;;4941927;29;20075;-77
2022/12/10 11:20:35;;;;;;;24.23;16.55;;;;;;;;;;4934770;28;20527;-78
2022/12/10 11:23:10;;;;;;;22.33;16.42;;;;;;;;;;4944627;29;20098;-78
2022/12/10 11:25:51;;;;;;;26.40;17.60;;;;;;;;;;4926253;29;20058;-77
2022/12/10 11:28:27;;;;;;;24.90;17.85;;;;;;;;;;4950750;29;20043;-78
2022/12/10 11:31:08;;;;;;;27.42;19.48;;;;;;;;;;4949301;29;20055;-78
2022/12/10 11:34:21;;;;;;;25.85;18.40;;;;;;;;;;4948520;29;20567;-78
2022/12/10 11:37:06;;;;;;;27.58;18.00;;;;;;;;;;4850326;29;20045;-77
2022/12/10 11:39:56;;;;;;;25.38;18.60;;;;;;;;;;4946834;29;20109;-78
2022/12/10 11:42:42;;;;;;;29.05;18.40;;;;;;;;;;4949382;28;20056;-77
2022/12/10 11:45:39;;;;;;;28.25;18.38;;;;;;;;;;4936513;29;21026;-78
2022/12/10 11:48:44;;;;;;;29.17;18.60;;;;;;;;;;4940590;29;20103;-77
2022/12/10 11:51:34;;;;;;;25.95;18.42;;;;;;;;;;4946456;28;20080;-76
2022/12/10 11:54:33;;;;;;;24.17;17.08;;;;;;;;;;4946226;29;20056;-77
2022/12/10 11:57:07;;;;;;;25.15;17.10;;;;;;;;;;4928332;29;20048;-78
2022/12/10 11:59:57;;;;;;;26.02;17.25;;;;;;;;;;4941896;29;20268;-77
2022/12/10 12:03:06;;;;;;;25.63;17.50;;;;;;;;;;4931311;29;20555;-78
2022/12/10 12:05:36;;;;;;;24.25;16.80;;;;;;;;;;4955797;28;20143;-77
2022/12/10 12:08:39;;;;;;;27.30;17.73;;;;;;;;;;4933703;29;20052;-79
2022/12/10 12:11:32;;;;;;;28.63;17.75;;;;;;;;;;4913688;29;20427;-78
2022/12/10 12:14:08;;;;;;;23.70;16.95;;;;;;;;;;4926564;29;20110;-79
2022/12/10 12:16:43;;;;;;;25.52;18.05;;;;;;;;;;4928846;29;20105;-79
2022/12/10 12:19:16;;;;;;;26.35;17.88;;;;;;;;;;4944264;29;20094;-79
2022/12/10 12:21:43;;;;;;;23.75;17.27;;;;;;;;;;4932423;29;20059;-79
2022/12/10 12:24:28;;;;;;;24.95;17.13;;;;;;;;;;4918775;29;20078;-78
2022/12/10 12:26:58;;;;;;;25.17;17.98;;;;;;;;;;4913211;29;20055;-79
2022/12/10 12:29:37;;;;;;;29.13;18.02;;;;;;;;;;4915844;29;20059;-79
2022/12/10 12:32:22;;;;;;;25.17;16.60;;;;;;;;;;4928236;29;20055;-78
2022/12/10 12:35:05;;;;;;;25.23;17.27;;;;;;;;;;4933184;28;20066;-78
2022/12/10 12:37:34;;;;;;;;;;;;;;;;;;4940961;29;20508;-79
2022/12/10 12:40:20;;;;;;;27.55;17.75;;;;;;;;;;4941402;29;19923;-79
2022/12/10 12:42:52;;;;;;;23.63;16.95;;;;;;;;;;4943351;28;20414;-79
2022/12/10 12:45:32;;;;;;;23.52;16.25;;;;;;;;;;4930912;29;20059;-78
2022/12/10 12:48:23;;;;;;;25.00;17.17;;;;;;;;;;4929829;29;20059;-79
2022/12/10 12:51:00;;;;;;;25.83;16.58;;;;;;;;;;4949212;29;20056;-78
2022/12/10 12:53:27;;;;;;;27.25;17.42;;;;;;;;;;4929089;29;20051;-81
2022/12/10 12:56:15;;;;;;;25.52;17.65;;;;;;;;;;4939862;29;20090;-79
2022/12/10 12:58:45;;;;;;;24.95;17.88;;;;;;;;;;4945695;29;20523;-79
2022/12/10 13:01:14;;;;;;;23.25;16.60;;;;;;;;;;4948100;28;20048;-79
2022/12/10 13:03:41;;;;;;;22.70;16.02;;;;;;;;;;4952027;29;20058;-80
2022/12/10 13:06:19;;;;;;;26.10;18.05;;;;;;;;;;4948158;29;20056;-78
2022/12/10 13:08:48;;;;;;;23.77;16.85;;;;;;;;;;4942806;29;20055;-79
2022/12/10 13:11:18;;;;;;;23.98;16.60;;;;;;;;;;4951360;28;20039;-79
2022/12/10 13:14:11;;;;;;;29.02;17.38;;;;;;;;;;4941948;29;20098;-78
2022/12/10 13:16:40;;;;;;;21.60;14.77;;;;;;;;;;4932305;29;20045;-78
2022/12/10 13:19:19;;;;;;;23.23;16.40;;;;;;;;;;4951049;29;20066;-76
2022/12/10 13:21:59;;;;;;;23.55;16.75;;;;;;;;;;4951695;28;20094;-77
2022/12/10 13:24:35;;;;;;;26.02;16.95;;;;;;;;;;4927110;29;20048;-76
2022/12/10 13:27:03;;;;;;;26.42;18.35;;;;;;;;;;4943052;29;20145;-76
2022/12/10 13:29:52;;;;;;;24.70;18.60;;;;;;;;;;4949877;29;20054;-78
2022/12/10 13:32:39;;;;;;;28.13;19.25;;;;;;;;;;4930806;29;20073;-76
2022/12/10 13:35:12;;;;;;;26.33;17.95;;;;;;;;;;4916842;29;20051;-78
2022/12/10 13:37:53;;;;;;;25.83;17.67;;;;;;;;;;4881814;29;20383;-78
2022/12/10 13:46:33;;;;;;;25.33;17.27;;;;;;;;;;4996092;23;20063;-76
2022/12/10 13:49:01;;;;;;;25.40;18.00;;;;;;;;;;4940339;28;20065;-78
2022/12/10 13:51:36;;;;;;;23.67;16.83;;;;;;;;;;4943347;28;20492;-78
2022/12/10 13:54:17;;;;;;;24.75;16.70;;;;;;;;;;4959305;28;20559;-77
2022/12/10 13:56:50;;;;;;;26.10;17.58;;;;;;;;;;4949543;28;20146;-77
2022/12/10 13:59:32;;;;;;;23.55;17.00;;;;;;;;;;4959585;28;20073;-78
2022/12/10 14:02:12;;;;;;;27.80;18.73;;;;;;;;;;4962530;28;20055;-77
2022/12/10 14:05:15;;;;;;;26.23;17.23;;;;;;;;;;4965335;28;20259;-77
2022/12/10 14:07:43;;;;;;;25.92;18.63;;;;;;;;;;4963360;28;20500;-75
2022/12/10 14:10:14;;;;;;;30.23;18.45;;;;;;;;;;4954832;28;20055;-75
2022/12/10 14:12:41;;;;;;;25.55;17.40;;;;;;;;;;4960061;28;20055;-76
2022/12/10 14:15:18;;;;;;;23.60;16.90;;;;;;;;;;4965639;28;20060;-76
2022/12/10 14:17:46;;;;;;;28.90;19.17;;;;;;;;;;4945934;28;20157;-75
2022/12/10 14:20:16;;;;;;;28.13;19.45;;;;;;;;;;4964863;28;20050;-76
2022/12/10 14:22:48;;;;;;;28.48;19.90;;;;;;;;;;4953600;28;20069;-76
2022/12/10 14:25:19;;;;;;;30.70;19.35;;;;;;;;;;4945292;28;20429;-75
2022/12/10 14:27:48;;;;;;;30.63;21.10;;;;;;;;;;4957376;28;20047;-75
2022/12/10 14:30:20;;;;;;;32.38;21.40;;;;;;;;;;4963915;28;20050;-77
2022/12/10 14:32:47;;;;;;;33.33;22.40;;;;;;;;;;4971394;28;20496;-77
2022/12/10 14:35:26;;;;;;;32.35;20.30;;;;;;;;;;4930718;28;20059;-76
2022/12/10 14:37:57;;;;;;;29.95;20.48;;;;;;;;;;4960651;28;20043;-77
2022/12/10 14:40:41;;;;;;;33.80;21.20;;;;;;;;;;4958391;28;20051;-76
2022/12/10 14:43:19;;;;;;;32.75;21.95;;;;;;;;;;4979550;28;20399;-78
2022/12/10 14:45:52;;;;;;;33.08;20.75;;;;;;;;;;4953701;28;20047;-78
2022/12/10 14:48:19;;;;;;;33.90;21.83;;;;;;;;;;4938860;28;20063;-77
2022/12/10 14:50:46;;;;;;;33.78;21.83;;;;;;;;;;4962429;28;20042;-80
2022/12/10 14:53:19;;;;;;;33.13;20.85;;;;;;;;;;4942066;28;20043;-78
2022/12/10 14:55:57;;;;;;;35.38;22.25;;;;;;;;;;4960748;28;20055;-76
2022/12/10 14:58:26;;;;;;;35.25;22.45;;;;;;;;;;4943928;28;20054;-77
2022/12/10 15:00:53;;;;;;;34.75;22.88;;;;;;;;;;4962831;28;20138;-78